Time;durP1;ratioP1;P1;durP2;ratioP2;P2;SDS_P1;SDS_P2;PMS_P1;PMS_P2;Temp;Humidity;BMP_temperature;BMP_pressure;BME280_temperature;BME280_humidity;BME280_pressure;Samples;Min_cycle;Max_cycle;Signal;HPM_P1;HPM_P2
2021/12/24 00:00:34;;;;;;;;;303.00;266.00;6.40;63.80;;;;;;5074327;28;8757;-70
2021/12/24 00:03:00;;;;;;;;;268.50;259.50;6.40;63.40;;;;;;5074165;28;8782;-72
2021/12/24 00:05:26;;;;;;;;;302.25;271.25;6.50;63.20;;;;;;5074552;28;8758;-71
2021/12/24 00:07:52;;;;;;;;;295.50;274.00;6.40;64.20;;;;;;5074002;28;8833;-72
2021/12/24 00:10:18;;;;;;;;;301.50;272.00;6.40;63.80;;;;;;5069111;28;8800;-70
2021/12/24 00:12:49;;;;;;;;;327.50;291.75;6.10;65.50;;;;;;5048865;28;8924;-72
2021/12/24 00:18:00;;;;;;;;;283.25;266.75;6.30;64.40;;;;;;5054488;28;8764;-70
2021/12/24 00:21:09;;;;;;;;;292.25;276.00;6.50;63.70;;;;;;5036611;28;8913;-71
2021/12/24 00:36:57;;;;;;;;;315.50;286.00;6.20;65.20;;;;;;5053949;28;8759;-69
2021/12/24 00:39:23;;;;;;;;;334.25;289.75;6.30;64.60;;;;;;5052263;28;8802;-71
2021/12/24 00:41:49;;;;;;;;;323.75;292.00;6.50;63.90;;;;;;5053887;28;8771;-71
2021/12/24 00:44:14;;;;;;;;;305.25;276.50;6.60;63.40;;;;;;5054121;28;8768;-71
2021/12/24 00:46:40;;;;;;;;;322.00;285.25;6.70;62.90;;;;;;5053898;28;9603;-70
2021/12/24 00:49:06;;;;;;;;;325.50;292.25;6.60;63.10;;;;;;5053705;28;8806;-70
2021/12/24 00:51:54;;;;;;;;;310.25;287.50;6.60;63.40;;;;;;5054100;28;8787;-71
2021/12/24 00:57:02;;;;;;;;;322.75;276.25;6.60;63.80;;;;;;5053911;28;8732;-70
2021/12/24 00:59:28;;;;;;;;;308.75;278.00;6.20;65.40;;;;;;5054028;28;8760;-69
2021/12/24 01:01:54;;;;;;;;;320.50;290.50;6.30;65.70;;;;;;5054029;28;9471;-71
2021/12/24 01:04:20;;;;;;;;;319.75;281.50;6.50;64.50;;;;;;5053689;28;9529;-71
2021/12/24 01:06:46;;;;;;;;;328.75;295.50;6.40;64.70;;;;;;5053676;28;8764;-70
2021/12/24 01:09:12;;;;;;;;;338.75;301.00;6.70;63.50;;;;;;5053221;28;8847;-70
2021/12/24 01:11:38;;;;;;;;;324.00;295.25;6.70;63.60;;;;;;5053669;28;8760;-71
2021/12/24 01:14:04;;;;;;;;;304.25;286.00;6.70;63.50;;;;;;5053802;28;8801;-70
2021/12/24 01:16:41;;;;;;;;;313.75;300.25;6.90;63.00;;;;;;5055959;28;8768;-70
2021/12/24 01:19:15;;;;;;;;;335.00;299.25;6.70;63.70;;;;;;5057209;28;8755;-71
2021/12/24 01:24:57;;;;;;;;;329.75;288.00;6.20;66.00;;;;;;4995705;28;8814;-72
2021/12/24 01:27:59;;;;;;;;;286.50;270.00;6.00;68.20;;;;;;4995688;28;9500;-73
2021/12/24 01:38:34;;;;;;;;;251.75;227.50;6.10;67.50;;;;;;4995438;28;8794;-72
2021/12/24 01:43:26;;;;;;;;;253.25;225.25;6.30;66.90;;;;;;4995385;28;9443;-73
2021/12/24 01:45:54;;;;;;;;;242.00;222.50;6.30;67.30;;;;;;4995321;28;9453;-69
2021/12/24 01:48:21;;;;;;;;;241.50;213.00;6.10;67.10;;;;;;4995163;28;8827;-71
2021/12/24 01:50:48;;;;;;;;;242.00;224.50;6.10;68.10;;;;;;4995304;28;8783;-71
2021/12/24 01:53:16;;;;;;;;;237.75;223.50;6.30;67.20;;;;;;4995194;28;8984;-72
2021/12/24 01:55:44;;;;;;;;;237.50;224.00;6.50;65.60;;;;;;5031051;28;9433;-71
2021/12/24 01:58:10;;;;;;;;;232.00;212.75;6.70;65.40;;;;;;5063593;28;8766;-71
2021/12/24 02:00:40;;;;;;;;;255.00;242.25;6.80;64.70;;;;;;5076831;28;8762;-71
2021/12/24 02:03:07;;;;;;;;;266.25;239.25;6.60;64.70;;;;;;5076470;28;8762;-70
2021/12/24 02:05:34;;;;;;;;;277.75;252.50;6.50;65.30;;;;;;5076453;28;8758;-73
2021/12/24 02:08:00;;;;;;;;;306.50;271.75;6.60;65.10;;;;;;5076023;28;8856;-71
2021/12/24 02:10:26;;;;;;;;;288.50;250.25;6.90;64.20;;;;;;5076568;28;8755;-72
2021/12/24 02:12:53;;;;;;;;;295.25;264.50;6.80;64.00;;;;;;5076291;28;9388;-70
2021/12/24 02:28:47;;;;;;;;;206.75;179.75;6.60;65.00;;;;;;5076030;28;8900;-71
2021/12/24 02:31:22;;;;;;;;;242.00;215.75;6.70;64.80;;;;;;5075947;28;8900;-70
2021/12/24 02:33:48;;;;;;;;;247.75;223.75;6.80;64.30;;;;;;5075980;28;8739;-70
2021/12/24 02:36:14;;;;;;;;;233.25;209.00;6.80;64.50;;;;;;5075776;28;8778;-71
2021/12/24 02:38:41;;;;;;;;;255.50;222.50;6.70;64.30;;;;;;5076039;28;9460;-70
2021/12/24 02:41:08;;;;;;;;;230.75;209.75;6.60;64.80;;;;;;5075678;28;8773;-71
2021/12/24 02:43:35;;;;;;;;;235.25;225.25;6.20;66.20;;;;;;5075650;28;8955;-70
2021/12/24 02:46:12;;;;;;;;;249.00;226.50;6.30;66.70;;;;;;5075900;28;8773;-70
2021/12/24 02:54:10;;;;;;;;;236.75;231.00;6.60;65.80;;;;;;5075505;28;9356;-70
2021/12/24 02:56:38;;;;;;;;;256.50;232.50;6.50;65.90;;;;;;5075634;28;8771;-71
2021/12/24 02:59:13;;;;;;;;;247.25;219.00;6.40;66.10;;;;;;5075301;28;8781;-71
2021/12/24 03:01:43;;;;;;;;;269.50;240.50;6.80;64.90;;;;;;5075570;28;8845;-72
2021/12/24 03:04:10;;;;;;;;;253.25;241.25;6.80;64.30;;;;;;5075227;28;8754;-72
2021/12/24 03:06:39;;;;;;;;;240.00;215.00;6.60;64.80;;;;;;5075198;28;8777;-71
2021/12/24 03:09:08;;;;;;;;;264.50;246.25;6.20;66.90;;;;;;5074783;28;8859;-71
2021/12/24 03:11:35;;;;;;;;;261.50;244.50;5.90;68.60;;;;;;5075398;28;8972;-71
2021/12/24 03:14:02;;;;;;;;;299.75;275.50;5.30;72.20;;;;;;5075044;28;8743;-72
2021/12/24 03:16:28;;;;;;;;;316.25;297.00;4.90;75.50;;;;;;5075255;28;8861;-71
2021/12/24 03:18:54;;;;;;;;;335.00;312.75;4.80;76.40;;;;;;5074798;28;8796;-72
2021/12/24 03:21:29;;;;;;;;;305.50;278.25;5.20;74.90;;;;;;5074940;28;8846;-70
2021/12/24 03:26:40;;;;;;;;;283.25;244.50;5.50;72.60;;;;;;5075169;28;8848;-70
2021/12/24 03:29:10;;;;;;;;;229.75;218.50;6.00;69.90;;;;;;5074796;28;8843;-70
2021/12/24 03:31:37;;;;;;;;;224.50;211.25;6.30;68.00;;;;;;5074758;28;8774;-70
2021/12/24 03:34:05;;;;;;;;;229.25;202.00;6.20;67.60;;;;;;5074699;28;8774;-71
2021/12/24 03:36:31;;;;;;;;;175.25;169.25;5.90;69.60;;;;;;5074664;28;8758;-70
2021/12/24 03:38:57;;;;;;;;;161.50;146.25;5.20;72.50;;;;;;5074505;28;8921;-73
2021/12/24 03:41:23;;;;;;;;;157.25;156.00;5.60;71.50;;;;;;5074596;28;9495;-71
2021/12/24 03:43:50;;;;;;;;;168.25;158.50;6.00;69.40;;;;;;5074524;28;8782;-72
2021/12/24 03:46:19;;;;;;;;;182.75;157.00;6.50;66.40;;;;;;5074821;28;8758;-71
2021/12/24 03:48:56;;;;;;;;;132.75;131.75;6.90;65.00;;;;;;5074679;28;8818;-72
2021/12/24 03:51:50;;;;;;;;;170.25;158.25;7.10;63.60;;;;;;5074790;28;8774;-71
2021/12/24 03:57:00;;;;;;;;;202.00;182.50;6.70;65.30;;;;;;5074487;28;8897;-71
2021/12/24 03:59:26;;;;;;;;;193.00;185.50;6.60;65.60;;;;;;5074706;28;8990;-70
2021/12/24 04:01:52;;;;;;;;;236.50;210.75;6.50;66.00;;;;;;5074345;28;8785;-70
2021/12/24 04:04:18;;;;;;;;;216.00;196.50;6.10;67.70;;;;;;5074445;28;8750;-71
2021/12/24 04:06:45;;;;;;;;;215.50;196.25;6.30;67.30;;;;;;5074376;28;9381;-72
2021/12/24 04:09:11;;;;;;;;;210.25;190.00;6.60;66.00;;;;;;5073970;28;8842;-71
2021/12/24 04:11:39;;;;;;;;;223.00;198.75;6.80;65.50;;;;;;5074511;28;8766;-72
2021/12/24 04:14:05;;;;;;;;;198.50;177.50;7.10;64.60;;;;;;5074239;28;8778;-70
2021/12/24 04:16:31;;;;;;;;;186.25;174.00;7.30;63.10;;;;;;5074212;28;8782;-71
2021/12/24 04:27:09;;;;;;;;;168.25;159.75;6.90;63.90;;;;;;5074231;28;8723;-72
2021/12/24 04:29:36;;;;;;;;;179.50;168.75;7.10;63.60;;;;;;5074002;28;8816;-71
2021/12/24 04:32:15;;;;;;;;;175.50;164.25;7.10;63.30;;;;;;5074357;28;8754;-72
2021/12/24 04:34:45;;;;;;;;;173.75;170.25;7.00;63.80;;;;;;5056395;28;8805;-71
2021/12/24 05:03:45;;;;;;;;;188.50;177.25;7.50;62.00;;;;;;5057706;28;8741;-71
2021/12/24 05:11:15;;;;;;;;;241.50;226.75;7.30;62.80;;;;;;5057677;28;8768;-70
2021/12/24 05:13:42;;;;;;;;;245.25;214.25;7.10;63.90;;;;;;5057604;28;8760;-70
2021/12/24 05:21:36;;;;;;;;;289.25;259.50;7.40;63.40;;;;;;4976336;28;9471;-70
2021/12/24 05:24:07;;;;;;;;;238.25;209.25;7.60;63.10;;;;;;4976301;28;8870;-72
2021/12/24 05:26:34;;;;;;;;;232.75;208.50;7.80;62.20;;;;;;4976238;28;8781;-71
2021/12/24 05:29:01;;;;;;;;;220.25;196.50;8.00;61.80;;;;;;4976009;28;8824;-70
2021/12/24 05:31:29;;;;;;;;;159.50;147.75;8.20;61.00;;;;;;4976258;28;8773;-71
2021/12/24 05:33:55;;;;;;;;;162.25;149.50;8.20;60.40;;;;;;4976150;28;8887;-71
2021/12/24 05:36:20;;;;;;;;;146.25;136.75;8.00;61.40;;;;;;4976077;28;8907;-71
2021/12/24 05:38:46;;;;;;;;;149.75;141.25;8.00;61.50;;;;;;4977368;28;8806;-70
2021/12/24 05:41:15;;;;;;;;;151.00;132.75;8.30;60.70;;;;;;4987467;28;8811;-71
2021/12/24 05:43:41;;;;;;;;;154.00;141.50;8.40;59.90;;;;;;4984666;28;8819;-72
2021/12/24 05:46:07;;;;;;;;;157.00;147.00;8.40;60.00;;;;;;4975968;28;8761;-71
2021/12/24 05:48:33;;;;;;;;;155.25;137.75;8.20;60.30;;;;;;4975745;28;8863;-72
2021/12/24 05:50:59;;;;;;;;;148.00;135.50;8.10;60.80;;;;;;4978177;28;8793;-72
2021/12/24 05:53:27;;;;;;;;;129.25;115.25;8.10;61.20;;;;;;4984417;28;8870;-72
2021/12/24 05:55:53;;;;;;;;;107.75;100.00;8.00;61.60;;;;;;5019630;28;8760;-73
2021/12/24 05:58:19;;;;;;;;;95.25;74.50;8.00;61.90;;;;;;5056538;28;8768;-72
2021/12/24 06:00:47;;;;;;;;;88.25;69.75;7.60;63.20;;;;;;5058127;28;8774;-69
2021/12/24 06:03:13;;;;;;;;;76.25;58.25;7.40;63.90;;;;;;5067888;28;8786;-66
2021/12/24 06:05:39;;;;;;;;;77.75;57.75;7.30;64.60;;;;;;5070552;28;8778;-71
2021/12/24 06:08:06;;;;;;;;;72.00;56.25;7.40;64.40;;;;;;5056693;28;8874;-73
2021/12/24 06:10:33;;;;;;;;;80.50;62.00;7.50;64.20;;;;;;5056300;28;8752;-71
2021/12/24 06:13:00;;;;;;;;;80.50;64.25;7.70;63.70;;;;;;5056547;28;8764;-72
2021/12/24 06:15:26;;;;;;;;;75.25;59.00;7.90;62.90;;;;;;5056190;28;8862;-71
2021/12/24 06:17:55;;;;;;;;;76.25;61.00;8.00;61.90;;;;;;5056456;28;8867;-71
2021/12/24 06:20:23;;;;;;;;;77.50;61.75;8.00;62.90;;;;;;5056309;28;8771;-71
2021/12/24 06:22:49;;;;;;;;;69.75;57.25;7.90;62.40;;;;;;5056178;28;8783;-71
2021/12/24 06:25:17;;;;;;;;;63.75;50.25;8.10;61.80;;;;;;5056159;28;8849;-72
2021/12/24 06:27:43;;;;;;;;;79.00;61.50;8.30;61.30;;;;;;5056309;28;8795;-71
2021/12/24 06:30:10;;;;;;;;;89.50;74.25;8.30;61.00;;;;;;5056278;28;8772;-71
2021/12/24 06:32:36;;;;;;;;;92.00;76.50;8.40;60.70;;;;;;5055989;28;9449;-73
2021/12/24 06:35:04;;;;;;;;;87.25;65.00;8.80;59.80;;;;;;5056004;28;8764;-72
2021/12/24 06:37:30;;;;;;;;;81.75;65.25;9.00;58.50;;;;;;5055699;28;8791;-74
2021/12/24 06:39:55;;;;;;;;;95.00;86.25;8.90;59.40;;;;;;5055837;28;8807;-72
2021/12/24 06:42:22;;;;;;;;;107.75;101.50;8.80;59.30;;;;;;5037965;28;8791;-71
2021/12/24 06:44:48;;;;;;;;;125.75;109.50;8.40;60.60;;;;;;5055809;28;8760;-73
2021/12/24 06:47:14;;;;;;;;;131.50;119.25;8.20;61.40;;;;;;5055763;28;8760;-71
2021/12/24 06:49:39;;;;;;;;;123.25;114.00;8.40;60.80;;;;;;5055476;28;8776;-72
2021/12/24 06:52:06;;;;;;;;;130.50;121.50;8.30;60.60;;;;;;5055519;28;8768;-72
2021/12/24 06:54:33;;;;;;;;;96.25;91.25;8.70;60.30;;;;;;5055543;28;8763;-71
2021/12/24 06:57:01;;;;;;;;;112.50;105.00;8.30;60.60;;;;;;5055653;28;8760;-70
2021/12/24 06:59:27;;;;;;;;;113.50;103.75;8.50;60.60;;;;;;5055623;28;8764;-70
2021/12/24 07:01:53;;;;;;;;;114.50;104.75;8.40;61.50;;;;;;5055176;28;8786;-70
2021/12/24 07:04:19;;;;;;;;;119.25;102.00;8.50;60.70;;;;;;5054969;28;8765;-78
2021/12/24 07:06:47;;;;;;;;;244.50;220.00;8.40;60.70;;;;;;5055182;28;8765;-79
2021/12/24 07:09:15;;;;;;;;;240.50;219.50;8.40;61.10;;;;;;5055163;28;8856;-79
2021/12/24 07:11:41;;;;;;;;;281.25;252.25;8.60;60.20;;;;;;5055132;28;8780;-78
2021/12/24 07:14:08;;;;;;;;;232.50;222.00;8.70;59.80;;;;;;5054259;28;8772;-80
2021/12/24 07:16:33;;;;;;;;;187.00;175.00;8.80;59.80;;;;;;5055105;28;8846;-79
2021/12/24 07:18:59;;;;;;;;;144.50;126.75;9.10;58.80;;;;;;5055032;28;8776;-79
2021/12/24 07:21:25;;;;;;;;;126.50;119.50;8.90;59.30;;;;;;5055156;28;8833;-79
2021/12/24 07:23:51;;;;;;;;;108.25;99.25;9.00;59.40;;;;;;5054929;28;8772;-79
2021/12/24 07:26:17;;;;;;;;;167.25;151.00;9.30;58.10;;;;;;5054904;28;8819;-78
2021/12/24 07:28:43;;;;;;;;;91.25;78.25;9.00;59.00;;;;;;5054905;28;8811;-79
2021/12/24 07:31:08;;;;;;;;;110.25;93.00;9.00;59.40;;;;;;5054728;28;8764;-79
2021/12/24 07:33:34;;;;;;;;;125.75;116.75;9.00;58.90;;;;;;5054865;28;8795;-79
2021/12/24 07:36:00;;;;;;;;;140.50;131.50;8.90;59.50;;;;;;5054702;28;8812;-79
2021/12/24 07:38:26;;;;;;;;;145.75;136.25;8.70;60.20;;;;;;5055027;28;8826;-80
2021/12/24 07:40:52;;;;;;;;;176.25;160.25;8.70;60.10;;;;;;5054660;28;8748;-67
2021/12/24 07:43:17;;;;;;;;;187.75;171.75;9.30;58.70;;;;;;5054813;28;8756;-68
2021/12/24 07:45:45;;;;;;;;;238.50;226.75;9.60;57.40;;;;;;5054837;28;8774;-67
2021/12/24 07:48:13;;;;;;;;;318.25;294.00;9.80;56.90;;;;;;5054446;28;8977;-67
2021/12/24 07:53:09;;;;;;;;;303.25;277.00;10.00;56.80;;;;;;5054420;28;8748;-69
2021/12/24 07:55:35;;;;;;;;;275.00;266.00;10.30;55.90;;;;;;5054458;28;8770;-69
2021/12/24 07:58:02;;;;;;;;;289.75;263.50;10.30;55.80;;;;;;5054279;28;8829;-70
2021/12/24 08:00:28;;;;;;;;;270.00;249.75;10.40;55.60;;;;;;5054477;28;8787;-68
2021/12/24 08:02:56;;;;;;;;;316.50;295.75;10.60;55.20;;;;;;5064871;28;8789;-69
2021/12/24 08:05:25;;;;;;;;;273.00;251.00;10.60;54.80;;;;;;5073198;28;9680;-69
2021/12/24 08:07:52;;;;;;;;;245.25;229.75;10.50;55.00;;;;;;5054917;28;8834;-68
2021/12/24 08:10:18;;;;;;;;;259.50;228.00;10.70;54.50;;;;;;5073172;28;8811;-72
2021/12/24 08:12:44;;;;;;;;;155.00;142.00;10.70;54.70;;;;;;5073332;28;8766;-66
2021/12/24 08:15:10;;;;;;;;;249.50;226.50;10.50;54.40;;;;;;5072913;28;9397;-67
2021/12/24 08:17:37;;;;;;;;;162.75;149.75;10.70;55.20;;;;;;5073066;28;8778;-67
2021/12/24 08:20:05;;;;;;;;;136.50;125.25;10.60;54.50;;;;;;5073114;28;8782;-67
2021/12/24 08:22:31;;;;;;;;;129.75;125.00;10.20;55.40;;;;;;5072733;28;8912;-68
2021/12/24 08:24:57;;;;;;;;;118.00;110.25;10.00;56.30;;;;;;5074582;28;8868;-65
2021/12/24 08:27:22;;;;;;;;;121.00;108.25;10.10;56.20;;;;;;5076618;28;8797;-65
2021/12/24 08:29:49;;;;;;;;;118.25;109.50;10.40;55.70;;;;;;5059023;28;8806;-65
2021/12/24 08:32:15;;;;;;;;;209.75;193.25;10.50;55.20;;;;;;5077064;28;8859;-65
2021/12/24 08:34:42;;;;;;;;;218.50;195.75;10.40;56.00;;;;;;5076946;28;8778;-65
2021/12/24 08:37:08;;;;;;;;;202.50;181.75;10.50;55.80;;;;;;5076688;28;8812;-65
2021/12/24 08:39:34;;;;;;;;;211.75;192.00;10.50;56.50;;;;;;5076246;28;8754;-65
2021/12/24 08:42:00;;;;;;;;;198.50;178.00;10.90;55.50;;;;;;5076708;28;8786;-65
2021/12/24 08:44:29;;;;;;;;;175.75;165.75;10.90;55.20;;;;;;5076582;28;8778;-65
2021/12/24 08:46:55;;;;;;;;;151.25;141.00;10.90;55.30;;;;;;5077998;28;8857;-66
2021/12/24 08:49:23;;;;;;;;;144.25;123.50;10.90;55.50;;;;;;5077882;28;8820;-68
2021/12/24 08:51:50;;;;;;;;;99.75;88.25;11.40;54.40;;;;;;5077728;28;8750;-66
2021/12/24 08:54:17;;;;;;;;;77.25;60.50;11.20;54.60;;;;;;5077792;28;8788;-66
2021/12/24 08:56:43;;;;;;;;;70.50;55.00;11.30;54.40;;;;;;5077900;28;9545;-67
2021/12/24 08:59:09;;;;;;;;;67.25;53.25;11.20;55.00;;;;;;5077775;28;8816;-66
2021/12/24 09:01:35;;;;;;;;;64.50;50.75;11.10;55.60;;;;;;5077502;28;9597;-67
2021/12/24 09:04:01;;;;;;;;;57.75;47.00;11.20;55.40;;;;;;5077512;28;8794;-69
2021/12/24 09:06:27;;;;;;;;;46.50;38.00;11.20;56.60;;;;;;5077344;28;8774;-66
2021/12/24 09:08:53;;;;;;;;;49.00;39.00;11.10;56.00;;;;;;5077121;28;8876;-67
2021/12/24 09:11:19;;;;;;;;;42.50;35.25;11.10;56.30;;;;;;5077402;28;8813;-68
2021/12/24 09:13:45;;;;;;;;;29.50;29.00;11.20;56.30;;;;;;5077379;28;8762;-68
2021/12/24 09:16:11;;;;;;;;;26.25;24.00;11.30;55.70;;;;;;5077463;28;8867;-68
2021/12/24 09:18:40;;;;;;;;;33.50;31.50;11.40;55.10;;;;;;5077287;28;8878;-67
2021/12/24 09:21:14;;;;;;;;;29.25;28.00;11.60;54.90;;;;;;5059615;28;8758;-69
2021/12/24 09:23:42;;;;;;;;;22.00;20.50;11.60;55.90;;;;;;5077302;28;8835;-71
2021/12/24 09:26:08;;;;;;;;;25.33;25.33;11.60;54.90;;;;;;5059433;28;8778;-70
2021/12/24 09:28:33;;;;;;;;;27.75;24.25;11.80;54.20;;;;;;5076787;28;8833;-71
2021/12/24 09:30:59;;;;;;;;;29.67;26.67;11.80;54.10;;;;;;5077057;28;8838;-67
2021/12/24 09:33:25;;;;;;;;;23.00;21.67;11.90;53.60;;;;;;5076364;28;8786;-67
2021/12/24 09:35:51;;;;;;;;;24.67;21.67;12.10;53.30;;;;;;5075972;28;8783;-65
2021/12/24 09:38:16;;;;;;;;;27.67;27.67;12.10;52.90;;;;;;5076415;28;9456;-71
2021/12/24 09:40:43;;;;;;;;;26.67;26.67;12.20;53.50;;;;;;5076548;28;8778;-68
2021/12/24 09:43:08;;;;;;;;;25.67;24.00;12.30;52.90;;;;;;5076765;28;8770;-65
2021/12/24 09:45:34;;;;;;;;;33.67;29.33;12.30;52.80;;;;;;5076824;28;8772;-67
2021/12/24 09:48:00;;;;;;;;;19.67;19.67;12.50;52.80;;;;;;5076914;28;9517;-67
2021/12/24 09:50:28;;;;;;;;;18.00;17.67;12.60;51.50;;;;;;5076586;28;8770;-67
2021/12/24 09:52:55;;;;;;;;;19.67;17.67;12.60;51.90;;;;;;5076855;28;8766;-71
2021/12/24 09:55:24;;;;;;;;;21.00;20.33;12.60;51.90;;;;;;5076736;28;9471;-71
2021/12/24 09:57:51;;;;;;;;;24.33;23.33;12.70;51.80;;;;;;5076747;28;8769;-71
2021/12/24 10:00:20;;;;;;;;;18.00;16.33;12.90;51.30;;;;;;5076530;28;8808;-69
2021/12/24 10:02:50;;;;;;;;;19.67;18.00;13.00;51.20;;;;;;5076525;28;8762;-66
2021/12/24 10:05:34;;;;;;;;;18.33;18.33;13.20;50.10;;;;;;5076502;28;8778;-67
2021/12/24 10:08:25;;;;;;;;;17.33;17.33;13.50;49.70;;;;;;5076137;28;8908;-68
2021/12/24 10:11:00;;;;;;;;;17.67;17.67;14.10;48.80;;;;;;5076471;28;8793;-69
2021/12/24 10:13:43;;;;;;;;;15.00;15.00;15.80;45.70;;;;;;5076536;28;8774;-69
2021/12/24 10:16:20;;;;;;;;;18.33;18.33;20.00;39.40;;;;;;5076459;28;8784;-70
2021/12/24 10:18:54;;;;;;;;;16.00;16.00;22.90;34.30;;;;;;5076277;28;11553;-67
2021/12/24 10:21:26;;;;;;;;;13.25;13.25;24.10;31.00;;;;;;5075839;28;11462;-69
2021/12/24 10:23:57;;;;;;;;;15.25;15.25;24.90;29.10;;;;;;5076215;28;11419;-67
2021/12/24 10:26:39;;;;;;;;;11.25;11.25;26.30;28.40;;;;;;5076130;28;11519;-67
2021/12/24 10:29:09;;;;;;;;;13.75;13.75;27.70;27.10;;;;;;5075771;28;11446;-65
2021/12/24 10:31:44;;;;;;;;;11.75;11.75;28.40;26.00;;;;;;5076035;28;11579;-64
2021/12/24 10:34:33;;;;;;;;;6.50;6.50;28.40;25.60;;;;;;5076039;28;11508;-66
2021/12/24 10:37:01;;;;;;;;;11.75;11.75;28.10;25.10;;;;;;5075527;28;11382;-67
2021/12/24 10:39:43;;;;;;;;;12.25;12.25;29.00;25.30;;;;;;5075610;28;11527;-64
2021/12/24 10:42:17;;;;;;;;;13.50;13.50;28.60;25.40;;;;;;5075670;28;11415;-64
2021/12/24 10:44:46;;;;;;;;;6.50;6.50;30.40;24.20;;;;;;5075659;28;11418;-67
2021/12/24 10:47:17;;;;;;;;;13.50;13.50;31.00;23.30;;;;;;5075061;28;11396;-66
2021/12/24 10:52:58;;;;;;;;;12.50;12.50;29.40;24.60;;;;;;5075420;28;11389;-66
2021/12/24 10:55:37;;;;;;;;;13.25;13.25;29.80;24.00;;;;;;5075274;28;11439;-64
2021/12/24 10:58:06;;;;;;;;;11.00;11.00;28.00;25.50;;;;;;5075444;28;11445;-65
2021/12/24 11:00:48;;;;;;;;;12.00;12.00;28.30;25.40;;;;;;5075223;28;11430;-64
2021/12/24 11:03:19;;;;;;;;;13.25;13.25;29.40;24.40;;;;;;5074915;28;11443;-64
2021/12/24 11:05:47;;;;;;;;;12.75;12.75;28.80;25.00;;;;;;5075151;28;11429;-64
2021/12/24 11:08:25;;;;;;;;;12.50;12.50;28.00;25.70;;;;;;5056998;28;11522;-63
2021/12/24 11:10:57;;;;;;;;;12.00;12.00;29.90;24.50;;;;;;5075264;28;11611;-63
2021/12/24 11:13:32;;;;;;;;;15.25;15.25;29.30;24.30;;;;;;5074989;28;11444;-63
2021/12/24 11:16:02;;;;;;;;;14.25;14.25;30.10;23.90;;;;;;5075109;28;11506;-65
2021/12/24 11:18:30;;;;;;;;;12.00;12.00;29.90;24.00;;;;;;5075373;28;11446;-71
2021/12/24 11:21:08;;;;;;;;;12.00;12.00;30.40;23.60;;;;;;5075081;28;11418;-62
2021/12/24 11:23:36;;;;;;;;;13.75;13.75;29.70;23.70;;;;;;5074755;28;11410;-63
2021/12/24 11:26:13;;;;;;;;;15.75;15.75;31.20;23.10;;;;;;5074728;28;11432;-64
2021/12/24 11:28:40;;;;;;;;;13.25;13.25;32.20;22.40;;;;;;5074622;28;11666;-67
2021/12/24 11:31:10;;;;;;;;;18.50;18.50;30.90;23.10;;;;;;5074521;28;11578;-68
2021/12/24 11:33:38;;;;;;;;;16.75;16.75;31.80;22.60;;;;;;5074839;28;11446;-65
2021/12/24 11:36:07;;;;;;;;;13.00;12.50;30.90;22.90;;;;;;5074493;28;11461;-65
2021/12/24 11:38:36;;;;;;;;;19.50;19.50;30.80;23.00;;;;;;5074755;28;12138;-68
2021/12/24 11:41:04;;;;;;;;;17.00;17.00;31.70;22.60;;;;;;5074583;28;12155;-65
2021/12/24 11:43:34;;;;;;;;;18.75;18.75;32.10;22.10;;;;;;5074455;28;11467;-65
2021/12/24 11:46:03;;;;;;;;;16.75;16.75;31.00;23.20;;;;;;5074366;28;11437;-65
2021/12/24 11:48:32;;;;;;;;;14.75;14.75;31.00;23.40;;;;;;5074333;28;11477;-66
2021/12/24 11:51:00;;;;;;;;;15.00;14.00;30.80;23.00;;;;;;5074033;28;11459;-63
2021/12/24 11:53:27;;;;;;;;;20.25;20.25;31.70;22.60;;;;;;5074252;28;11449;-72
2021/12/24 11:55:54;;;;;;;;;16.50;16.50;32.30;22.10;;;;;;5074076;28;11416;-70
2021/12/24 11:58:25;;;;;;;;;16.25;16.25;31.60;22.60;;;;;;5074263;28;11472;-71
2021/12/24 12:00:54;;;;;;;;;13.25;13.25;31.00;22.80;;;;;;5074107;28;11460;-71
2021/12/24 12:03:42;;;;;;;;;20.00;20.00;32.30;22.40;;;;;;5074153;28;11454;-71
2021/12/24 12:06:34;;;;;;;;;19.00;19.00;32.40;21.90;;;;;;5074104;28;11443;-73
2021/12/24 12:09:10;;;;;;;;;19.00;19.00;31.00;22.30;;;;;;5074002;28;11521;-72
2021/12/24 12:11:40;;;;;;;;;24.75;24.75;28.20;24.80;;;;;;5074011;28;11520;-73
2021/12/24 12:14:23;;;;;;;;;20.50;20.25;26.70;26.00;;;;;;5074231;28;11492;-70
2021/12/24 12:16:51;;;;;;;;;14.25;14.25;27.60;25.00;;;;;;5074435;28;12150;-73
2021/12/24 12:19:28;;;;;;;;;14.50;14.50;25.80;26.30;;;;;;5074085;28;11432;-71
2021/12/24 12:22:19;;;;;;;;;15.25;15.25;24.60;28.00;;;;;;5073970;28;11414;-71
2021/12/24 12:27:26;;;;;;;;;16.50;16.50;23.80;28.20;;;;;;5074150;28;11552;-72
2021/12/24 12:29:52;;;;;;;;;14.25;14.25;23.10;29.90;;;;;;5073914;28;8793;-71
2021/12/24 12:32:17;;;;;;;;;18.50;18.50;24.30;29.00;;;;;;5073821;28;11416;-72
2021/12/24 12:34:43;;;;;;;;;21.50;21.50;24.80;27.90;;;;;;5073953;28;8793;-71
2021/12/24 12:37:40;;;;;;;;;15.00;15.00;24.70;28.30;;;;;;5074013;28;8762;-71
2021/12/24 12:40:27;;;;;;;;;13.50;13.50;24.50;28.40;;;;;;5072436;28;9451;-71
2021/12/24 12:43:06;;;;;;;;;13.50;13.50;23.70;28.90;;;;;;5073947;28;11425;-69
2021/12/24 12:45:32;;;;;;;;;8.00;8.00;24.20;29.00;;;;;;5073898;28;11409;-71
2021/12/24 12:48:03;;;;;;;;;16.75;16.75;24.70;27.90;;;;;;5073879;28;11446;-71
2021/12/24 12:50:29;;;;;;;;;14.25;14.25;24.90;28.10;;;;;;5074140;28;8980;-72
2021/12/24 12:53:30;;;;;;;;;11.75;11.75;25.40;27.60;;;;;;5073619;28;11453;-70
2021/12/24 12:56:14;;;;;;;;;10.50;10.50;24.40;28.10;;;;;;5073603;28;11440;-72
2021/12/24 12:58:49;;;;;;;;;16.00;16.00;24.10;28.80;;;;;;5073622;28;11425;-73
2021/12/24 13:01:20;;;;;;;;;14.00;14.00;24.60;28.50;;;;;;5073742;28;11418;-71
2021/12/24 13:03:58;;;;;;;;;20.00;20.00;25.80;27.60;;;;;;5073758;28;11479;-73
2021/12/24 13:06:41;;;;;;;;;15.75;15.75;26.00;27.10;;;;;;5073701;28;11458;-73
2021/12/24 13:09:21;;;;;;;;;18.25;18.25;25.10;27.70;;;;;;5073197;28;11721;-71
2021/12/24 13:11:52;;;;;;;;;18.25;18.25;25.30;27.50;;;;;;5074883;28;11565;-74
2021/12/24 13:14:19;;;;;;;;;20.75;20.75;24.70;28.10;;;;;;5077556;28;11546;-72
2021/12/24 13:17:17;;;;;;;;;19.75;19.75;23.50;29.30;;;;;;5077240;28;11688;-71
2021/12/24 13:22:28;;;;;;;;;18.50;18.50;24.80;29.30;;;;;;5077140;28;11465;-75
2021/12/24 13:24:59;;;;;;;;;19.25;19.25;26.20;27.40;;;;;;5077451;28;11444;-66
2021/12/24 13:27:30;;;;;;;;;21.25;20.25;27.20;26.60;;;;;;5077436;28;11448;-69
2021/12/24 13:30:18;;;;;;;;;16.50;16.50;26.60;26.80;;;;;;5077081;28;11477;-69
2021/12/24 13:32:50;;;;;;;;;18.75;18.75;26.20;27.00;;;;;;5077186;28;11514;-71
2021/12/24 13:35:19;;;;;;;;;14.00;14.00;24.80;27.70;;;;;;5076903;28;11534;-69
2021/12/24 13:37:46;;;;;;;;;17.75;17.75;23.50;28.90;;;;;;5074449;28;11482;-65
2021/12/24 13:40:19;;;;;;;;;17.00;17.00;21.90;31.40;;;;;;5071412;28;12103;-64
2021/12/24 13:42:55;;;;;;;;;21.75;21.25;20.80;33.40;;;;;;5073917;28;11431;-63
2021/12/24 13:45:23;;;;;;;;;22.67;22.67;20.30;34.20;;;;;;5072943;28;12115;-63
2021/12/24 13:56:20;;;;;;;;;19.00;19.00;18.90;37.80;;;;;;5072795;28;12109;-63
2021/12/24 13:58:58;;;;;;;;;17.67;17.67;18.40;38.60;;;;;;5072506;28;8804;-64
2021/12/24 14:01:29;;;;;;;;;19.00;19.00;17.90;40.00;;;;;;5072409;28;8772;-64
2021/12/24 14:03:55;;;;;;;;;17.00;17.00;18.00;39.90;;;;;;5073217;28;8859;-64
2021/12/24 14:06:42;;;;;;;;;27.67;27.67;17.60;40.60;;;;;;5054797;28;8785;-65
2021/12/24 14:09:16;;;;;;;;;25.00;24.00;17.40;40.60;;;;;;5068994;28;8841;-64
2021/12/24 14:11:44;;;;;;;;;28.00;27.00;17.20;41.20;;;;;;5072642;28;8836;-64
2021/12/24 14:14:20;;;;;;;;;26.00;26.00;16.90;41.90;;;;;;5071745;28;8777;-64
2021/12/24 14:18:03;;;;;;;;;31.33;31.00;17.00;41.80;;;;;;5065385;28;8780;-63
2021/12/24 14:22:23;;;;;;;;;34.00;33.00;16.90;42.30;;;;;;5066706;28;8718;-65
2021/12/24 14:25:01;;;;;;;;;36.00;34.67;16.70;42.90;;;;;;5074516;28;8774;-64
2021/12/24 14:27:29;;;;;;;;;38.67;36.00;17.00;42.40;;;;;;5075596;28;9493;-62
2021/12/24 14:30:07;;;;;;;;;34.67;32.67;16.60;43.40;;;;;;5075339;28;8897;-63
2021/12/24 14:32:36;;;;;;;;;39.67;37.33;16.50;43.90;;;;;;5073911;28;8796;-62
2021/12/24 14:35:21;;;;;;;;;45.67;39.67;16.60;43.50;;;;;;5065243;28;8801;-64
2021/12/24 14:38:07;;;;;;;;;50.25;42.75;16.70;43.20;;;;;;5070750;28;8853;-65
2021/12/24 14:40:35;;;;;;;;;41.75;38.00;15.70;46.00;;;;;;5071872;28;8844;-64
2021/12/24 14:43:12;;;;;;;;;47.75;41.00;15.60;46.40;;;;;;5071755;28;9443;-64
2021/12/24 14:45:40;;;;;;;;;53.25;45.25;15.90;45.40;;;;;;5074684;28;9435;-66
2021/12/24 14:48:08;;;;;;;;;55.75;47.00;16.00;44.90;;;;;;5074276;28;8765;-68